Herman, Nebraska
Current Conditions -  °F | °C
As of 8:54 AM on Monday 24 Nov 2014 (Local Time) from KTQE Reporting Station
Overcast Overcast  
Wind Chill: 14°   Ceiling: 2300
Heat Index: 28°   Visibility: 10mi
Dew Point: 17°   Wind: 23mph
Humidity: 63%   Direction: 310°NW
Pressure: 29.69"   Gusts: 35mph
Location:  41.67°N, 96.22°W
Report Text: KTQE 241454Z AUTO 31020G30KT 10SM OVC023 M02/M08 A2969 RMK AO2 PK WND 32033/1437 SLP057 T10221083 52028
Loading
Personal Weather Stations






























Interactive Weather Map New forecast layout! Learn more

10-Day Weather Forecast

Advertisements
Track Severe Weather on mobile